Time;durP1;ratioP1;P1;durP2;ratioP2;P2;SDS_P1;SDS_P2;PMS_P1;PMS_P2;Temp;Humidity;BMP_temperature;BMP_pressure;BME280_temperature;BME280_humidity;BME280_pressure;Samples;Min_cycle;Max_cycle;Signal;HPM_P1;HPM_P2
2021/03/28 00:00:15;;;;;;;;;;;18.40;38.40;;;;;;462843;257;1256;-45
2021/03/28 00:02:17;;;;;;;;;;;18.40;38.50;;;;;;462844;257;1267;-45
2021/03/28 00:04:18;;;;;;;;;;;18.40;38.50;;;;;;462827;257;1231;-45
2021/03/28 00:06:19;;;;;;;;;;;18.40;38.50;;;;;;462806;257;1097;-45
2021/03/28 00:08:20;;;;;;;;;;;18.40;38.50;;;;;;463033;257;2164;-45
2021/03/28 00:10:22;;;;;;;;;;;18.40;38.60;;;;;;462880;257;1190;-45
2021/03/28 00:12:23;;;;;;;;;;;18.30;38.50;;;;;;462865;257;1101;-45
2021/03/28 00:14:24;;;;;;;;;;;18.40;38.50;;;;;;462851;257;1065;-45
2021/03/28 00:16:25;;;;;;;;;;;18.30;38.50;;;;;;462851;257;1101;-45
2021/03/28 00:18:27;;;;;;;;;;;18.30;38.50;;;;;;463054;257;1325;-45
2021/03/28 00:20:28;;;;;;;;;;;18.30;38.50;;;;;;463204;257;1089;-45
2021/03/28 00:22:29;;;;;;;;;;;18.30;38.60;;;;;;462897;257;1075;-45
2021/03/28 00:24:31;;;;;;;;;;;18.30;38.60;;;;;;462876;257;1026;-45
2021/03/28 00:26:32;;;;;;;;;;;18.30;38.60;;;;;;462915;257;1047;-45
2021/03/28 00:28:33;;;;;;;;;;;18.30;38.70;;;;;;463086;257;2203;-45
2021/03/28 00:30:34;;;;;;;;;;;18.30;38.60;;;;;;463037;257;1077;-45
2021/03/28 00:32:36;;;;;;;;;;;18.30;38.60;;;;;;462724;257;1082;-45
2021/03/28 00:34:37;;;;;;;;;;;18.30;38.60;;;;;;462930;257;1196;-45
2021/03/28 00:36:38;;;;;;;;;;;18.30;38.60;;;;;;462860;257;1063;-45
2021/03/28 00:38:40;;;;;;;;;;;18.20;38.60;;;;;;462983;257;1043;-45
2021/03/28 00:40:41;;;;;;;;;;;18.20;38.70;;;;;;463035;257;1064;-45
2021/03/28 00:42:42;;;;;;;;;;;18.20;38.70;;;;;;462890;257;1059;-45
2021/03/28 00:44:43;;;;;;;;;;;18.30;38.70;;;;;;462943;257;1056;-45
2021/03/28 00:46:45;;;;;;;;;;;18.30;38.60;;;;;;462870;257;1085;-45
2021/03/28 00:48:46;;;;;;;;;;;18.30;38.60;;;;;;463155;257;2206;-45
2021/03/28 00:50:47;;;;;;;;;;;18.30;38.70;;;;;;462838;257;1076;-45
2021/03/28 00:52:48;;;;;;;;;;;18.20;38.70;;;;;;463070;257;1254;-45
2021/03/28 00:54:50;;;;;;;;;;;18.20;38.60;;;;;;462845;257;1245;-45
2021/03/28 00:56:51;;;;;;;;;;;18.30;38.60;;;;;;462920;257;1285;-45
2021/03/28 00:58:52;;;;;;;;;;;18.20;38.70;;;;;;462936;257;1307;-45
2021/03/28 01:00:54;;;;;;;;;;;18.20;38.80;;;;;;463124;257;1043;-44
2021/03/28 01:03:01;;;;;;;;;;;18.20;38.80;;;;;;462896;257;1118;-45
2021/03/28 01:04:56;;;;;;;;;;;18.20;38.80;;;;;;462528;257;1432;-45
2021/03/28 01:06:57;;;;;;;;;;;18.20;38.80;;;;;;463149;254;1110;-45
2021/03/28 01:08:59;;;;;;;;;;;18.20;38.80;;;;;;462787;257;2194;-45
2021/03/28 01:11:00;;;;;;;;;;;18.20;38.70;;;;;;462819;257;1100;-45
2021/03/28 01:13:01;;;;;;;;;;;18.20;38.70;;;;;;462889;257;1185;-45
2021/03/28 01:15:03;;;;;;;;;;;18.20;38.80;;;;;;462866;257;1094;-45
2021/03/28 01:17:04;;;;;;;;;;;18.20;38.70;;;;;;462845;257;1054;-45
2021/03/28 01:19:05;;;;;;;;;;;18.20;38.60;;;;;;462821;257;1211;-45
2021/03/28 01:21:06;;;;;;;;;;;18.20;38.70;;;;;;462799;257;1061;-45
2021/03/28 01:23:08;;;;;;;;;;;18.20;38.60;;;;;;463003;257;1192;-45
2021/03/28 01:25:09;;;;;;;;;;;18.20;38.70;;;;;;463274;257;1187;-45
2021/03/28 01:27:10;;;;;;;;;;;18.20;38.60;;;;;;463092;257;1069;-45
2021/03/28 01:29:12;;;;;;;;;;;18.20;38.60;;;;;;463318;257;2199;-45
2021/03/28 01:31:13;;;;;;;;;;;18.20;38.60;;;;;;463015;257;1040;-45
2021/03/28 01:33:14;;;;;;;;;;;18.20;38.60;;;;;;462982;257;1047;-45
2021/03/28 01:35:15;;;;;;;;;;;18.20;38.60;;;;;;462997;257;1297;-45
2021/03/28 01:37:17;;;;;;;;;;;18.20;38.60;;;;;;463092;257;1378;-45
2021/03/28 01:39:18;;;;;;;;;;;18.20;38.60;;;;;;462858;257;1049;-45
2021/03/28 01:41:19;;;;;;;;;;;18.20;38.60;;;;;;462976;257;1239;-45
2021/03/28 01:43:20;;;;;;;;;;;18.30;38.50;;;;;;462808;257;1070;-45
2021/03/28 01:45:22;;;;;;;;;;;18.20;38.50;;;;;;462781;257;1113;-45
2021/03/28 01:47:23;;;;;;;;;;;18.20;38.50;;;;;;462803;257;2152;-45
2021/03/28 01:49:24;;;;;;;;;;;18.20;38.50;;;;;;462799;257;1245;-45
2021/03/28 01:51:25;;;;;;;;;;;18.30;38.50;;;;;;462798;257;1164;-45
2021/03/28 01:53:27;;;;;;;;;;;18.20;38.40;;;;;;462910;257;1059;-45
2021/03/28 01:55:28;;;;;;;;;;;18.20;38.50;;;;;;462985;257;1098;-45
2021/03/28 01:57:29;;;;;;;;;;;18.20;38.50;;;;;;463016;257;1160;-45
2021/03/28 01:59:31;;;;;;;;;;;18.20;38.50;;;;;;462975;257;1226;-45
2021/03/28 02:01:32;;;;;;;;;;;18.20;38.40;;;;;;462899;254;1222;-45
2021/03/28 02:03:33;;;;;;;;;;;18.40;38.30;;;;;;462854;257;1147;-45
2021/03/28 02:05:34;;;;;;;;;;;18.70;37.70;;;;;;462981;257;1275;-45
2021/03/28 02:07:36;;;;;;;;;;;19.00;37.10;;;;;;463240;257;2148;-45
2021/03/28 02:09:37;;;;;;;;;;;19.20;36.60;;;;;;462800;257;1205;-45
2021/03/28 02:11:38;;;;;;;;;;;19.40;36.30;;;;;;462752;257;1324;-45
2021/03/28 02:13:40;;;;;;;;;;;19.50;36.10;;;;;;462800;257;1118;-45
2021/03/28 02:15:41;;;;;;;;;;;19.60;35.90;;;;;;462873;257;1248;-45
2021/03/28 02:17:42;;;;;;;;;;;19.60;35.70;;;;;;463134;257;1125;-45
2021/03/28 02:19:43;;;;;;;;;;;19.70;35.60;;;;;;462970;257;1191;-45
2021/03/28 02:21:45;;;;;;;;;;;19.80;35.60;;;;;;463289;257;1378;-45
2021/03/28 02:23:46;;;;;;;;;;;19.80;35.50;;;;;;463283;257;1040;-45
2021/03/28 02:25:48;;;;;;;;;;;19.90;35.50;;;;;;463134;257;1074;-45
2021/03/28 02:27:49;;;;;;;;;;;19.90;35.30;;;;;;462924;257;2143;-46
2021/03/28 02:29:50;;;;;;;;;;;19.90;35.30;;;;;;462872;257;1187;-45
2021/03/28 02:31:51;;;;;;;;;;;20.00;35.30;;;;;;463088;257;1309;-45
2021/03/28 02:33:53;;;;;;;;;;;20.00;35.20;;;;;;462828;257;1084;-45
2021/03/28 02:35:54;;;;;;;;;;;20.00;35.20;;;;;;462939;257;1197;-45
2021/03/28 02:37:55;;;;;;;;;;;20.00;35.00;;;;;;462911;257;1093;-45
2021/03/28 02:39:56;;;;;;;;;;;20.10;35.00;;;;;;462845;257;1052;-45
2021/03/28 02:41:58;;;;;;;;;;;20.10;35.00;;;;;;462809;257;1240;-45
2021/03/28 02:43:59;;;;;;;;;;;20.10;34.90;;;;;;462977;257;1027;-46
2021/03/28 02:46:00;;;;;;;;;;;20.20;34.90;;;;;;462923;257;1227;-45
2021/03/28 02:48:02;;;;;;;;;;;20.20;34.90;;;;;;463186;257;2148;-45
2021/03/28 02:50:03;;;;;;;;;;;20.20;34.80;;;;;;463126;257;1625;-45
2021/03/28 02:52:04;;;;;;;;;;;20.20;34.80;;;;;;462884;257;1293;-45
2021/03/28 02:54:05;;;;;;;;;;;20.30;34.70;;;;;;462995;257;1089;-45
2021/03/28 02:56:08;;;;;;;;;;;20.30;34.70;;;;;;462874;257;1291;-45
2021/03/28 02:58:08;;;;;;;;;;;20.30;34.70;;;;;;462833;257;2267;-45
2021/03/28 03:00:09;;;;;;;;;;;20.30;34.70;;;;;;462825;257;1088;-45
2021/03/28 03:02:10;;;;;;;;;;;20.30;34.70;;;;;;462837;257;1062;-45
2021/03/28 03:04:12;;;;;;;;;;;20.40;34.70;;;;;;462777;257;1218;-45
2021/03/28 03:06:13;;;;;;;;;;;20.40;34.60;;;;;;462831;257;1203;-45
2021/03/28 03:08:14;;;;;;;;;;;20.40;34.60;;;;;;462788;257;2156;-45
2021/03/28 03:10:16;;;;;;;;;;;20.40;34.50;;;;;;463101;257;1176;-45
2021/03/28 03:12:17;;;;;;;;;;;20.50;34.60;;;;;;462952;257;1186;-45
2021/03/28 03:14:19;;;;;;;;;;;20.50;34.50;;;;;;463044;257;986;-45
2021/03/28 03:16:20;;;;;;;;;;;20.50;34.50;;;;;;462947;257;1176;-45
2021/03/28 03:18:21;;;;;;;;;;;20.50;34.50;;;;;;463025;257;1058;-45
2021/03/28 03:20:22;;;;;;;;;;;20.50;34.50;;;;;;462801;257;1383;-45
2021/03/28 03:22:24;;;;;;;;;;;20.50;34.50;;;;;;463234;257;1184;-45
2021/03/28 03:24:25;;;;;;;;;;;20.60;34.50;;;;;;462865;257;1055;-45
2021/03/28 03:26:26;;;;;;;;;;;20.60;34.40;;;;;;462757;254;1238;-45
2021/03/28 03:28:28;;;;;;;;;;;20.60;34.40;;;;;;462835;257;2155;-44
2021/03/28 03:30:29;;;;;;;;;;;20.60;34.40;;;;;;462828;257;1430;-45
2021/03/28 03:32:30;;;;;;;;;;;20.60;34.40;;;;;;462781;257;1197;-45
2021/03/28 03:34:31;;;;;;;;;;;20.60;34.40;;;;;;462812;257;1096;-45
2021/03/28 03:36:33;;;;;;;;;;;20.60;34.30;;;;;;462982;257;1555;-45
2021/03/28 03:38:34;;;;;;;;;;;20.70;34.40;;;;;;462970;257;1043;-46
2021/03/28 03:40:35;;;;;;;;;;;20.70;34.40;;;;;;462889;257;1051;-46
2021/03/28 03:42:36;;;;;;;;;;;20.70;34.40;;;;;;462810;257;1170;-45
2021/03/28 03:44:38;;;;;;;;;;;20.70;34.30;;;;;;462968;257;1104;-45
2021/03/28 03:46:39;;;;;;;;;;;20.70;34.30;;;;;;462813;254;1213;-45
2021/03/28 03:48:40;;;;;;;;;;;20.70;34.30;;;;;;462883;257;2202;-45
2021/03/28 03:50:42;;;;;;;;;;;20.70;34.20;;;;;;462823;257;1309;-45
2021/03/28 03:52:43;;;;;;;;;;;20.80;34.30;;;;;;462918;257;1172;-45
2021/03/28 03:54:44;;;;;;;;;;;20.70;34.30;;;;;;462771;257;1077;-45
2021/03/28 03:56:45;;;;;;;;;;;20.70;34.20;;;;;;462948;254;1232;-45
2021/03/28 03:58:47;;;;;;;;;;;20.80;34.30;;;;;;462879;257;1103;-45
2021/03/28 04:00:48;;;;;;;;;;;20.80;34.30;;;;;;462855;257;1067;-45
2021/03/28 04:02:49;;;;;;;;;;;20.80;34.20;;;;;;463105;257;1085;-45
2021/03/28 04:04:50;;;;;;;;;;;20.80;34.30;;;;;;463114;257;1031;-45
2021/03/28 04:06:52;;;;;;;;;;;20.80;34.20;;;;;;462982;257;1271;-45
2021/03/28 04:08:53;;;;;;;;;;;20.80;34.20;;;;;;463030;257;2164;-45
2021/03/28 04:10:54;;;;;;;;;;;20.90;34.20;;;;;;463267;257;1206;-45
2021/03/28 04:12:56;;;;;;;;;;;20.90;34.20;;;;;;462896;257;1133;-45
2021/03/28 04:14:57;;;;;;;;;;;20.90;34.20;;;;;;462869;257;1000;-45
2021/03/28 04:16:58;;;;;;;;;;;20.90;34.20;;;;;;462889;257;1277;-45
2021/03/28 04:18:59;;;;;;;;;;;20.80;34.20;;;;;;462974;257;1089;-45
2021/03/28 04:21:01;;;;;;;;;;;20.90;34.20;;;;;;462782;257;1354;-45
2021/03/28 04:23:02;;;;;;;;;;;20.90;34.20;;;;;;462916;257;1091;-45
2021/03/28 04:25:03;;;;;;;;;;;20.90;34.20;;;;;;462856;257;1050;-45
2021/03/28 04:27:05;;;;;;;;;;;21.00;34.20;;;;;;462890;257;1063;-45
2021/03/28 04:29:06;;;;;;;;;;;21.00;34.10;;;;;;462952;257;2207;-46
2021/03/28 04:31:07;;;;;;;;;;;20.90;34.10;;;;;;462910;257;1092;-45
2021/03/28 04:33:08;;;;;;;;;;;21.00;34.20;;;;;;462925;257;1048;-45
2021/03/28 04:35:10;;;;;;;;;;;21.00;34.20;;;;;;462786;257;1095;-45
2021/03/28 04:37:11;;;;;;;;;;;21.00;34.10;;;;;;462952;257;1286;-45
2021/03/28 04:39:12;;;;;;;;;;;21.00;34.10;;;;;;463163;257;1054;-45
2021/03/28 04:41:14;;;;;;;;;;;20.90;34.10;;;;;;463094;257;1493;-45
2021/03/28 04:43:15;;;;;;;;;;;20.90;34.10;;;;;;462815;257;1049;-45
2021/03/28 04:45:16;;;;;;;;;;;21.00;34.20;;;;;;462785;257;1054;-45
2021/03/28 04:47:17;;;;;;;;;;;21.00;34.20;;;;;;462820;257;1322;-45
2021/03/28 04:49:19;;;;;;;;;;;21.00;34.20;;;;;;462811;257;2190;-45
2021/03/28 04:51:20;;;;;;;;;;;21.00;34.10;;;;;;462793;257;1291;-45
2021/03/28 04:53:21;;;;;;;;;;;21.00;34.10;;;;;;462905;257;1092;-45
2021/03/28 04:55:23;;;;;;;;;;;21.00;34.10;;;;;;462837;257;1311;-45
2021/03/28 04:57:24;;;;;;;;;;;21.00;34.10;;;;;;462979;257;1195;-45
2021/03/28 04:59:25;;;;;;;;;;;21.00;34.10;;;;;;463223;257;1135;-45
2021/03/28 05:01:26;;;;;;;;;;;21.00;34.10;;;;;;462882;254;1237;-45
2021/03/28 05:03:28;;;;;;;;;;;21.00;34.10;;;;;;462907;257;1098;-45
2021/03/28 05:05:29;;;;;;;;;;;21.00;34.10;;;;;;463022;257;1077;-45
2021/03/28 05:07:30;;;;;;;;;;;21.10;34.10;;;;;;462927;257;1291;-45
2021/03/28 05:09:31;;;;;;;;;;;21.10;34.10;;;;;;462835;257;2158;-45
2021/03/28 05:11:33;;;;;;;;;;;21.10;34.10;;;;;;462800;257;1072;-45
2021/03/28 05:13:34;;;;;;;;;;;21.10;34.20;;;;;;463010;257;991;-45
2021/03/28 05:15:35;;;;;;;;;;;21.10;34.10;;;;;;462944;257;1241;-45
2021/03/28 05:17:37;;;;;;;;;;;21.10;34.10;;;;;;462862;257;1105;-45
2021/03/28 05:19:38;;;;;;;;;;;21.10;34.10;;;;;;462887;257;1090;-45
2021/03/28 05:21:39;;;;;;;;;;;21.10;34.10;;;;;;462892;257;1187;-45
2021/03/28 05:23:40;;;;;;;;;;;21.10;34.10;;;;;;462847;257;1115;-45
2021/03/28 05:25:42;;;;;;;;;;;21.10;34.10;;;;;;462845;257;1078;-45
2021/03/28 05:27:43;;;;;;;;;;;21.10;34.10;;;;;;462857;257;1072;-45
2021/03/28 05:29:44;;;;;;;;;;;21.10;34.00;;;;;;463044;257;2147;-45
2021/03/28 05:31:45;;;;;;;;;;;21.10;34.10;;;;;;463007;257;1109;-45
2021/03/28 05:33:47;;;;;;;;;;;21.10;34.10;;;;;;462927;257;1075;-45
2021/03/28 05:35:49;;;;;;;;;;;21.10;34.10;;;;;;462774;257;1213;-45
2021/03/28 05:37:51;;;;;;;;;;;21.10;34.10;;;;;;462741;257;2285;-45
2021/03/28 05:39:52;;;;;;;;;;;21.10;34.10;;;;;;462756;257;1124;-45
2021/03/28 05:41:53;;;;;;;;;;;21.10;34.10;;;;;;462893;257;2494;-45
2021/03/28 05:43:54;;;;;;;;;;;21.10;34.10;;;;;;462847;257;1121;-45
2021/03/28 05:45:56;;;;;;;;;;;21.20;34.10;;;;;;462946;257;995;-45
2021/03/28 05:47:57;;;;;;;;;;;21.20;34.10;;;;;;462962;257;1073;-45
2021/03/28 05:49:58;;;;;;;;;;;21.20;34.10;;;;;;462876;257;2152;-45
2021/03/28 05:51:59;;;;;;;;;;;21.20;34.10;;;;;;463080;257;1373;-45
2021/03/28 05:54:01;;;;;;;;;;;21.20;34.10;;;;;;463045;257;1045;-45
2021/03/28 05:56:02;;;;;;;;;;;21.20;34.10;;;;;;463210;257;1062;-46
2021/03/28 05:58:03;;;;;;;;;;;21.20;34.10;;;;;;462872;257;1109;-45
2021/03/28 06:00:05;;;;;;;;;;;21.20;34.00;;;;;;462832;257;1074;-45
2021/03/28 06:02:06;;;;;;;;;;;21.20;34.10;;;;;;462816;257;1053;-45
2021/03/28 06:04:07;;;;;;;;;;;21.20;34.10;;;;;;462701;257;1199;-45
2021/03/28 06:06:08;;;;;;;;;;;21.20;34.10;;;;;;462994;257;1198;-45
2021/03/28 06:08:10;;;;;;;;;;;21.10;34.10;;;;;;462928;257;1167;-45
2021/03/28 06:10:11;;;;;;;;;;;21.20;34.10;;;;;;462707;257;2262;-45
2021/03/28 06:12:12;;;;;;;;;;;21.20;34.10;;;;;;462892;257;1067;-45
2021/03/28 06:14:14;;;;;;;;;;;21.20;34.10;;;;;;463057;257;1202;-45
2021/03/28 06:16:15;;;;;;;;;;;21.20;34.10;;;;;;462895;257;1129;-45
2021/03/28 06:18:16;;;;;;;;;;;21.20;34.10;;;;;;463277;257;976;-46
2021/03/28 06:20:17;;;;;;;;;;;21.20;34.00;;;;;;462866;257;1090;-45
2021/03/28 06:22:19;;;;;;;;;;;21.20;34.00;;;;;;463038;257;1066;-45
2021/03/28 06:24:20;;;;;;;;;;;21.30;34.10;;;;;;462949;257;1307;-45
2021/03/28 06:26:21;;;;;;;;;;;21.20;34.00;;;;;;462879;257;1096;-45
2021/03/28 06:28:22;;;;;;;;;;;21.20;34.00;;;;;;462888;257;987;-45
2021/03/28 06:30:24;;;;;;;;;;;21.20;34.00;;;;;;462775;257;2223;-45
2021/03/28 06:32:25;;;;;;;;;;;21.30;34.10;;;;;;462761;257;1097;-45
2021/03/28 06:34:26;;;;;;;;;;;21.20;34.00;;;;;;462917;257;1164;-45
2021/03/28 06:36:28;;;;;;;;;;;21.30;34.00;;;;;;462798;257;1143;-45
2021/03/28 06:38:29;;;;;;;;;;;21.20;34.00;;;;;;462898;257;1294;-45
2021/03/28 06:40:39;;;;;;;;;;;21.20;34.00;;;;;;462882;257;1052;-45
2021/03/28 06:42:39;;;;;;;;;;;21.30;34.00;;;;;;463194;257;2204;-45
2021/03/28 06:44:40;;;;;;;;;;;21.30;34.00;;;;;;462830;257;1118;-45
2021/03/28 06:46:41;;;;;;;;;;;21.20;34.00;;;;;;462822;257;1097;-45
2021/03/28 06:48:42;;;;;;;;;;;21.30;34.00;;;;;;463220;257;1076;-45
2021/03/28 06:50:44;;;;;;;;;;;21.30;34.00;;;;;;462816;257;2144;-45
2021/03/28 06:52:45;;;;;;;;;;;21.30;34.00;;;;;;462871;257;1180;-45
2021/03/28 06:54:47;;;;;;;;;;;21.30;34.00;;;;;;462810;257;1170;-46
2021/03/28 06:56:48;;;;;;;;;;;21.30;34.00;;;;;;462885;257;1089;-45
2021/03/28 06:58:49;;;;;;;;;;;21.30;33.90;;;;;;462912;257;1214;-45
2021/03/28 07:00:50;;;;;;;;;;;21.40;34.00;;;;;;462792;257;1075;-45
2021/03/28 07:02:52;;;;;;;;;;;21.40;33.90;;;;;;462921;257;1260;-45
2021/03/28 07:04:53;;;;;;;;;;;21.40;33.90;;;;;;462963;257;1070;-45
2021/03/28 07:06:54;;;;;;;;;;;21.40;33.90;;;;;;463056;257;1049;-45
2021/03/28 07:08:55;;;;;;;;;;;21.40;33.90;;;;;;462974;257;1190;-45
2021/03/28 07:10:57;;;;;;;;;;;21.40;33.90;;;;;;462873;257;2199;-45
2021/03/28 07:12:58;;;;;;;;;;;21.40;34.00;;;;;;462912;257;1058;-45
2021/03/28 07:14:59;;;;;;;;;;;21.30;33.90;;;;;;462780;257;1064;-45
2021/03/28 07:17:01;;;;;;;;;;;21.40;34.00;;;;;;462988;257;1125;-45
2021/03/28 07:19:02;;;;;;;;;;;21.40;33.90;;;;;;462952;257;1085;-45
2021/03/28 07:21:03;;;;;;;;;;;21.40;33.90;;;;;;462947;257;1125;-45
2021/03/28 07:23:06;;;;;;;;;;;21.40;33.90;;;;;;462774;257;1319;-45
2021/03/28 07:25:06;;;;;;;;;;;21.40;33.90;;;;;;462746;257;2358;-46
2021/03/28 07:27:08;;;;;;;;;;;21.40;34.00;;;;;;462819;257;1080;-45
2021/03/28 07:29:09;;;;;;;;;;;21.40;34.00;;;;;;462873;257;1041;-45
2021/03/28 07:31:10;;;;;;;;;;;21.40;34.00;;;;;;462902;254;2222;-45
2021/03/28 07:33:11;;;;;;;;;;;21.40;34.00;;;;;;462910;257;1067;-45
2021/03/28 07:35:13;;;;;;;;;;;21.40;34.00;;;;;;462996;257;1077;-45
2021/03/28 07:37:14;;;;;;;;;;;21.40;33.90;;;;;;462925;257;1064;-45
2021/03/28 07:39:15;;;;;;;;;;;21.40;33.90;;;;;;462962;257;1175;-45
2021/03/28 07:41:17;;;;;;;;;;;21.40;34.00;;;;;;462969;257;1061;-45
2021/03/28 07:43:18;;;;;;;;;;;21.40;34.00;;;;;;463142;257;1060;-45
2021/03/28 07:45:20;;;;;;;;;;;21.40;34.00;;;;;;462783;257;1255;-46
2021/03/28 07:47:20;;;;;;;;;;;21.40;33.90;;;;;;462908;257;2292;-45
2021/03/28 07:49:22;;;;;;;;;;;21.40;33.90;;;;;;462826;257;2140;-45
2021/03/28 07:51:23;;;;;;;;;;;21.40;34.00;;;;;;462919;257;1133;-45
2021/03/28 07:53:24;;;;;;;;;;;21.50;33.80;;;;;;462890;257;1157;-45
2021/03/28 07:55:26;;;;;;;;;;;21.20;34.10;;;;;;462845;257;1074;-45
2021/03/28 07:57:29;;;;;;;;;;;20.80;34.90;;;;;;462839;257;1149;-45
2021/03/28 07:59:28;;;;;;;;;;;20.30;35.70;;;;;;462763;258;1371;-45
2021/03/28 08:01:29;;;;;;;;;;;20.10;36.30;;;;;;462891;257;1371;-45
2021/03/28 08:03:31;;;;;;;;;;;19.90;36.70;;;;;;462932;257;1062;-45
2021/03/28 08:05:32;;;;;;;;;;;19.70;37.00;;;;;;463025;257;1145;-45
2021/03/28 08:07:33;;;;;;;;;;;19.50;37.30;;;;;;462889;257;1104;-45
2021/03/28 08:09:35;;;;;;;;;;;19.40;37.50;;;;;;462926;257;2159;-45
2021/03/28 08:11:36;;;;;;;;;;;19.40;37.70;;;;;;462842;257;1143;-45
2021/03/28 08:13:37;;;;;;;;;;;19.30;37.80;;;;;;462836;257;1079;-45
2021/03/28 08:15:38;;;;;;;;;;;19.20;37.90;;;;;;462850;257;1100;-45
2021/03/28 08:17:40;;;;;;;;;;;19.20;38.00;;;;;;462829;257;1095;-45
2021/03/28 08:19:41;;;;;;;;;;;19.20;38.00;;;;;;463241;257;1093;-45
2021/03/28 08:21:42;;;;;;;;;;;19.10;38.10;;;;;;463037;257;1109;-45
2021/03/28 08:23:43;;;;;;;;;;;19.00;38.20;;;;;;462908;257;1315;-45
2021/03/28 08:25:45;;;;;;;;;;;19.00;38.20;;;;;;462945;257;1267;-45
2021/03/28 08:27:47;;;;;;;;;;;19.00;38.40;;;;;;462906;257;1067;-45
2021/03/28 08:29:47;;;;;;;;;;;18.90;38.40;;;;;;462934;257;2196;-45
2021/03/28 08:31:48;;;;;;;;;;;18.90;38.40;;;;;;462860;257;1247;-45
2021/03/28 08:33:50;;;;;;;;;;;18.90;38.50;;;;;;462864;257;1101;-45
2021/03/28 08:35:51;;;;;;;;;;;18.90;38.50;;;;;;462935;257;1163;-45
2021/03/28 08:37:52;;;;;;;;;;;18.90;38.60;;;;;;462800;257;1340;-45
2021/03/28 08:39:54;;;;;;;;;;;18.90;38.50;;;;;;462873;257;1171;-45
2021/03/28 08:41:55;;;;;;;;;;;18.90;38.50;;;;;;462845;257;1289;-45
2021/03/28 08:43:56;;;;;;;;;;;18.90;38.60;;;;;;462859;257;1130;-45
2021/03/28 08:45:57;;;;;;;;;;;18.80;38.60;;;;;;462780;257;1661;-45
2021/03/28 08:47:59;;;;;;;;;;;18.80;38.70;;;;;;462842;257;1216;-45
2021/03/28 08:50:00;;;;;;;;;;;18.80;38.70;;;;;;462976;257;2155;-45
2021/03/28 08:52:01;;;;;;;;;;;18.80;38.70;;;;;;462899;257;1161;-45
2021/03/28 08:54:03;;;;;;;;;;;18.70;38.70;;;;;;463001;257;1195;-45
2021/03/28 08:56:04;;;;;;;;;;;18.80;38.60;;;;;;462912;254;1238;-44
2021/03/28 08:58:05;;;;;;;;;;;18.70;38.70;;;;;;463054;257;1074;-45
2021/03/28 09:00:07;;;;;;;;;;;18.70;38.80;;;;;;463243;257;1062;-45
2021/03/28 09:02:08;;;;;;;;;;;18.60;38.80;;;;;;463001;257;1155;-45
2021/03/28 09:04:09;;;;;;;;;;;18.60;38.80;;;;;;462807;257;1120;-44
2021/03/28 09:06:10;;;;;;;;;;;18.60;38.80;;;;;;462899;257;1163;-45
2021/03/28 09:08:12;;;;;;;;;;;18.60;38.90;;;;;;462880;257;1058;-45
2021/03/28 09:10:13;;;;;;;;;;;18.60;38.80;;;;;;462766;257;2218;-45
2021/03/28 09:12:14;;;;;;;;;;;18.60;38.90;;;;;;462745;257;1079;-45
2021/03/28 09:14:16;;;;;;;;;;;18.50;38.90;;;;;;462938;257;1068;-45
2021/03/28 09:16:17;;;;;;;;;;;18.50;39.00;;;;;;463040;257;1182;-45
2021/03/28 09:18:18;;;;;;;;;;;18.50;39.00;;;;;;463376;257;1085;-45
2021/03/28 09:20:19;;;;;;;;;;;18.50;39.00;;;;;;463103;257;1120;-45
2021/03/28 09:22:21;;;;;;;;;;;18.50;39.00;;;;;;463022;257;1063;-45
2021/03/28 09:24:22;;;;;;;;;;;18.50;38.90;;;;;;462932;257;1175;-45
2021/03/28 09:26:24;;;;;;;;;;;18.50;39.00;;;;;;462918;257;1088;-45
2021/03/28 09:28:25;;;;;;;;;;;18.50;38.90;;;;;;462891;257;1074;-45
2021/03/28 09:30:27;;;;;;;;;;;18.50;38.90;;;;;;462886;257;2256;-45
2021/03/28 09:32:27;;;;;;;;;;;18.50;38.90;;;;;;462775;257;2157;-45
2021/03/28 09:34:29;;;;;;;;;;;18.40;38.90;;;;;;462909;257;1077;-45
2021/03/28 09:36:30;;;;;;;;;;;18.50;38.90;;;;;;462802;257;1082;-45
2021/03/28 09:38:31;;;;;;;;;;;18.50;38.80;;;;;;462987;257;1073;-45
2021/03/28 09:40:33;;;;;;;;;;;18.50;38.90;;;;;;462972;257;1248;-45
2021/03/28 09:42:34;;;;;;;;;;;18.40;38.90;;;;;;463220;257;1315;-45
2021/03/28 09:44:36;;;;;;;;;;;18.40;39.00;;;;;;462839;257;1067;-45
2021/03/28 09:46:37;;;;;;;;;;;18.40;39.00;;;;;;463288;257;1098;-45
2021/03/28 09:48:38;;;;;;;;;;;18.40;39.00;;;;;;463266;257;1138;-45
2021/03/28 09:50:39;;;;;;;;;;;18.40;39.00;;;;;;462851;257;2164;-45
2021/03/28 09:52:40;;;;;;;;;;;18.40;39.00;;;;;;463040;257;1101;-45
2021/03/28 09:54:42;;;;;;;;;;;18.40;39.10;;;;;;462980;257;1176;-45
2021/03/28 09:56:43;;;;;;;;;;;18.30;39.10;;;;;;462768;258;1085;-44
2021/03/28 09:58:44;;;;;;;;;;;18.40;39.10;;;;;;462792;257;1056;-45
2021/03/28 10:00:46;;;;;;;;;;;18.40;39.10;;;;;;462864;257;1241;-45
2021/03/28 10:02:47;;;;;;;;;;;18.40;39.10;;;;;;463026;257;1049;-45
2021/03/28 10:04:48;;;;;;;;;;;18.40;39.00;;;;;;463122;257;1054;-45
2021/03/28 10:06:49;;;;;;;;;;;18.40;39.00;;;;;;463024;257;1070;-45
2021/03/28 10:08:51;;;;;;;;;;;18.30;38.90;;;;;;463079;257;1109;-45
2021/03/28 10:10:52;;;;;;;;;;;18.30;39.00;;;;;;462917;257;2215;-45
2021/03/28 10:12:53;;;;;;;;;;;18.30;39.00;;;;;;463133;257;1046;-45
2021/03/28 10:14:54;;;;;;;;;;;18.30;38.90;;;;;;462810;257;1079;-45
2021/03/28 10:16:56;;;;;;;;;;;18.30;39.00;;;;;;462891;257;1086;-45
2021/03/28 10:18:57;;;;;;;;;;;18.30;39.00;;;;;;463215;257;1119;-45
2021/03/28 10:20:58;;;;;;;;;;;18.30;38.90;;;;;;463232;257;1102;-45
2021/03/28 10:23:00;;;;;;;;;;;18.30;38.90;;;;;;462799;257;1069;-45
2021/03/28 10:25:01;;;;;;;;;;;18.30;38.90;;;;;;462898;257;1320;-45
2021/03/28 10:27:02;;;;;;;;;;;18.30;38.80;;;;;;463007;257;1076;-45
2021/03/28 10:29:03;;;;;;;;;;;18.30;38.90;;;;;;462756;257;1352;-45
2021/03/28 10:31:05;;;;;;;;;;;18.30;39.00;;;;;;462810;257;2198;-45
2021/03/28 10:33:06;;;;;;;;;;;18.30;39.10;;;;;;462906;257;1099;-45
2021/03/28 10:35:07;;;;;;;;;;;18.20;39.00;;;;;;462911;257;1194;-45
2021/03/28 10:37:09;;;;;;;;;;;18.20;39.00;;;;;;463009;257;1206;-45
2021/03/28 10:39:10;;;;;;;;;;;18.20;39.10;;;;;;463124;257;1075;-45
2021/03/28 10:41:11;;;;;;;;;;;18.20;39.10;;;;;;462934;257;1207;-45
2021/03/28 10:43:12;;;;;;;;;;;18.20;39.10;;;;;;462882;257;1098;-45
2021/03/28 10:45:14;;;;;;;;;;;18.20;39.00;;;;;;463024;257;1057;-45
2021/03/28 10:47:15;;;;;;;;;;;18.20;39.00;;;;;;462841;257;1308;-45
2021/03/28 10:49:17;;;;;;;;;;;18.20;39.10;;;;;;462749;257;1109;-45
2021/03/28 10:51:18;;;;;;;;;;;18.20;39.00;;;;;;462654;257;2211;-45
2021/03/28 10:53:19;;;;;;;;;;;18.20;38.90;;;;;;462817;257;1065;-45
2021/03/28 10:55:20;;;;;;;;;;;18.20;39.10;;;;;;463007;257;1136;-45
2021/03/28 10:57:22;;;;;;;;;;;18.20;39.00;;;;;;462906;257;1233;-45
2021/03/28 10:59:23;;;;;;;;;;;18.10;39.00;;;;;;462956;257;1091;-45
2021/03/28 11:01:24;;;;;;;;;;;18.20;39.10;;;;;;462964;257;1183;-45
2021/03/28 11:03:26;;;;;;;;;;;18.10;39.10;;;;;;463198;257;1184;-45
2021/03/28 11:05:27;;;;;;;;;;;18.10;39.10;;;;;;463089;257;1466;-45
2021/03/28 11:07:28;;;;;;;;;;;18.10;39.20;;;;;;462991;257;1103;-45
2021/03/28 11:09:30;;;;;;;;;;;18.10;39.20;;;;;;462865;257;1077;-45
2021/03/28 11:11:31;;;;;;;;;;;18.10;39.10;;;;;;462922;257;2211;-45
2021/03/28 11:13:32;;;;;;;;;;;18.10;39.00;;;;;;462985;257;1201;-45
2021/03/28 11:15:33;;;;;;;;;;;18.20;38.90;;;;;;462928;257;1079;-45
2021/03/28 11:17:35;;;;;;;;;;;18.10;39.00;;;;;;462939;257;1292;-45
2021/03/28 11:19:36;;;;;;;;;;;18.10;39.10;;;;;;462778;257;1116;-45
2021/03/28 11:21:37;;;;;;;;;;;18.10;39.10;;;;;;462827;257;1530;-45
2021/03/28 11:23:39;;;;;;;;;;;18.10;39.00;;;;;;462888;257;1086;-45
2021/03/28 11:25:40;;;;;;;;;;;18.10;39.00;;;;;;462812;257;1494;-45
2021/03/28 11:27:41;;;;;;;;;;;18.10;39.00;;;;;;462775;257;1151;-45
2021/03/28 11:29:42;;;;;;;;;;;18.10;39.00;;;;;;462835;257;1084;-45
2021/03/28 11:31:43;;;;;;;;;;;18.20;38.90;;;;;;463008;257;2155;-45
2021/03/28 11:33:45;;;;;;;;;;;18.20;38.80;;;;;;462958;257;1120;-45
2021/03/28 11:35:46;;;;;;;;;;;18.10;38.90;;;;;;462855;257;1231;-44
2021/03/28 11:37:47;;;;;;;;;;;18.10;39.00;;;;;;463177;257;1203;-45
2021/03/28 11:39:49;;;;;;;;;;;18.10;38.90;;;;;;462815;257;1068;-45
2021/03/28 11:41:50;;;;;;;;;;;18.30;38.70;;;;;;462885;257;1296;-45
2021/03/28 11:43:52;;;;;;;;;;;18.60;38.10;;;;;;462845;257;1272;-45
2021/03/28 11:45:53;;;;;;;;;;;18.90;37.30;;;;;;462787;257;1078;-45
2021/03/28 11:47:54;;;;;;;;;;;19.20;36.90;;;;;;462891;257;1059;-45
2021/03/28 11:49:55;;;;;;;;;;;19.30;36.60;;;;;;462970;257;1065;-45
2021/03/28 11:51:57;;;;;;;;;;;19.40;36.30;;;;;;462858;257;2216;-45
2021/03/28 11:53:58;;;;;;;;;;;19.50;36.20;;;;;;462856;257;1031;-45
2021/03/28 11:55:59;;;;;;;;;;;19.60;36.00;;;;;;462993;257;1165;-45